Time;durP1;ratioP1;P1;durP2;ratioP2;P2;SDS_P1;SDS_P2;PMS_P1;PMS_P2;Temp;Humidity;BMP_temperature;BMP_pressure;BME280_temperature;BME280_humidity;BME280_pressure;Samples;Min_cycle;Max_cycle;Signal;HPM_P1;HPM_P2
2022/04/27 04:22:33;;;;;;;56.58;26.92;;;;;;;8.39;100.00;100794.66;5162413;27;20329;-77
2022/04/27 04:30:53;;;;;;;44.63;23.33;;;;;;;8.46;100.00;100796.75;5128211;28;20031;-77
2022/04/27 04:33:39;;;;;;;50.22;25.15;;;;;;;8.42;100.00;100801.53;5128965;27;20096;-77
2022/04/27 04:36:06;;;;;;;47.08;22.83;;;;;;;8.51;100.00;100813.09;5128815;27;20038;-77
2022/04/27 04:38:31;;;;;;;49.67;25.73;;;;;;;8.43;100.00;100806.69;5128439;28;20031;-77
2022/04/27 04:41:03;;;;;;;47.78;22.88;;;;;;;8.45;100.00;100816.31;5112851;28;20035;-77
2022/04/27 04:43:43;;;;;;;46.83;23.27;;;;;;;8.43;100.00;100816.47;5131138;27;20046;-77
2022/04/27 04:46:09;;;;;;;47.28;23.92;;;;;;;8.46;100.00;100815.31;5129850;27;20035;-77
2022/04/27 04:48:49;;;;;;;45.97;23.13;;;;;;;8.49;100.00;100823.03;5129685;27;20466;-77
2022/04/27 04:51:34;;;;;;;47.80;25.05;;;;;;;8.50;100.00;100828.19;5128977;27;20400;-77
2022/04/27 04:54:20;;;;;;;45.13;23.77;;;;;;;8.48;100.00;100829.31;5122346;27;20039;-77
2022/04/27 04:57:21;;;;;;;42.95;22.77;;;;;;;8.54;100.00;100831.34;5095377;28;20484;-77
2022/04/27 05:00:05;;;;;;;42.67;22.33;;;;;;;8.55;100.00;100836.56;5124364;28;20051;-77
2022/04/27 05:02:45;;;;;;;37.10;20.92;;;;;;;8.53;100.00;100827.03;5127263;27;20038;-77
2022/04/27 05:05:20;;;;;;;46.33;22.45;;;;;;;8.56;100.00;100832.06;5127424;27;20463;-77
2022/04/27 05:08:09;;;;;;;39.88;21.83;;;;;;;8.57;100.00;100828.44;5127916;28;20039;-77
2022/04/27 05:10:54;;;;;;;46.25;23.42;;;;;;;8.58;100.00;100836.25;5128636;27;20094;-77
2022/04/27 05:13:38;;;;;;;40.95;22.02;;;;;;;8.64;100.00;100842.78;5127199;28;20031;-77
2022/04/27 05:16:22;;;;;;;43.35;21.77;;;;;;;8.64;100.00;100840.97;5128731;27;20054;-77
2022/04/27 05:19:13;;;;;;;41.65;22.45;;;;;;;8.64;100.00;100853.41;5126282;27;20062;-77
2022/04/27 05:21:56;;;;;;;42.53;20.48;;;;;;;8.62;100.00;100852.72;5126789;28;20036;-77
2022/04/27 05:24:34;;;;;;;40.22;21.25;;;;;;;8.65;100.00;100850.59;5127139;28;20122;-77
2022/04/27 05:27:08;;;;;;;43.45;23.17;;;;;;;8.71;100.00;100857.16;5127030;27;20097;-77
2022/04/27 05:32:56;;;;;;;41.42;20.75;;;;;;;8.69;100.00;100859.13;5119583;28;20059;-77
2022/04/27 05:35:22;;;;;;;41.40;21.45;;;;;;;8.78;100.00;100866.22;5113217;28;20036;-75
2022/04/27 05:37:56;;;;;;;39.55;21.15;;;;;;;8.77;100.00;100869.03;5114420;28;20039;-76
2022/04/27 05:40:43;;;;;;;36.95;20.42;;;;;;;8.85;100.00;100864.63;5113407;28;20043;-76
2022/04/27 05:43:39;;;;;;;41.90;21.10;;;;;;;8.90;100.00;100866.88;5084628;28;20480;-76
2022/04/27 05:46:25;;;;;;;36.88;20.17;;;;;;;8.94;100.00;100869.09;5079588;28;20354;-76
2022/04/27 05:49:12;;;;;;;41.03;20.67;;;;;;;9.00;100.00;100877.44;5092730;28;20078;-76
2022/04/27 05:51:52;;;;;;;36.58;19.48;;;;;;;8.99;100.00;100876.59;5092441;28;20036;-76
2022/04/27 05:54:41;;;;;;;31.02;19.40;;;;;;;9.07;100.00;100865.25;5085267;28;20459;-76
2022/04/27 05:57:19;;;;;;;36.30;20.42;;;;;;;9.13;100.00;100873.47;5092187;28;20031;-75
2022/04/27 06:00:12;;;;;;;34.47;19.33;;;;;;;9.18;100.00;100871.19;5077211;28;20047;-77
2022/04/27 06:02:56;;;;;;;34.17;19.05;;;;;;;9.24;100.00;100875.06;5091876;28;20036;-76
2022/04/27 06:05:27;;;;;;;37.88;20.48;;;;;;;9.29;100.00;100882.59;5076548;28;20043;-73
2022/04/27 06:07:52;;;;;;;32.10;18.88;;;;;;;9.41;100.00;100890.22;5093450;28;20036;-73
2022/04/27 06:10:20;;;;;;;34.28;20.10;;;;;;;9.33;100.00;100889.31;5091960;28;20729;-73
2022/04/27 06:12:54;;;;;;;36.22;18.75;;;;;;;9.46;100.00;100889.78;5091750;28;20584;-74
2022/04/27 06:15:37;;;;;;;34.78;19.00;;;;;;;9.50;100.00;100896.44;5092434;28;20054;-72
2022/04/27 06:18:10;;;;;;;36.67;19.70;;;;;;;9.58;100.00;100895.69;5091899;28;20116;-73
2022/04/27 06:20:39;;;;;;;34.80;19.58;;;;;;;9.67;100.00;100897.47;5091663;28;20032;-74
2022/04/27 06:23:05;;;;;;;34.05;18.55;;;;;;;9.67;100.00;100898.28;5091686;28;20039;-73
2022/04/27 06:25:32;;;;;;;33.33;19.40;;;;;;;9.74;100.00;100904.69;5093023;28;20077;-73
2022/04/27 06:28:08;;;;;;;33.47;19.23;;;;;;;9.71;99.75;100902.31;5091821;28;20032;-74
2022/04/27 06:30:35;;;;;;;31.13;18.17;;;;;;;9.80;98.47;100908.56;5092890;28;20286;-70
2022/04/27 06:33:02;;;;;;;34.72;19.08;;;;;;;9.70;99.25;100905.13;5091392;28;20123;-70
2022/04/27 06:35:28;;;;;;;29.90;18.17;;;;;;;9.80;98.85;100908.56;5092888;28;20072;-71
2022/04/27 06:37:59;;;;;;;32.53;18.05;;;;;;;9.79;98.41;100913.06;5091520;28;20036;-73
2022/04/27 06:40:25;;;;;;;33.95;19.70;;;;;;;9.77;97.84;100915.00;5091418;28;20032;-72
2022/04/27 06:42:52;;;;;;;34.15;18.92;;;;;;;9.49;98.36;100919.56;5091112;28;20035;-72
2022/04/27 06:45:36;;;;;;;31.38;18.85;;;;;;;9.70;98.78;100916.59;5091821;28;20047;-72
2022/04/27 06:48:20;;;;;;;30.10;18.27;;;;;;;9.83;96.99;100924.22;5093419;28;20558;-72
2022/04/27 06:51:04;;;;;;;30.60;17.25;;;;;;;9.76;96.42;100917.81;5092561;28;20097;-71
2022/04/27 06:53:53;;;;;;;31.27;18.08;;;;;;;9.74;97.92;100917.16;5063276;28;20066;-73
2022/04/27 06:56:37;;;;;;;32.70;18.30;;;;;;;9.95;96.82;100930.16;5092442;28;20089;-73
2022/04/27 06:59:12;;;;;;;33.38;19.33;;;;;;;10.06;96.66;100928.09;5092601;28;20048;-72
2022/04/27 07:01:39;;;;;;;31.65;17.98;;;;;;;10.06;96.34;100927.25;5074065;28;20035;-72
2022/04/27 07:04:11;;;;;;;;;;;;;;;10.00;96.15;100925.22;5092690;28;20036;-72
2022/04/27 07:06:38;;;;;;;32.45;18.58;;;;;;;10.20;95.41;100925.88;5090884;28;19916;-72
2022/04/27 07:09:05;;;;;;;33.97;19.10;;;;;;;10.18;96.88;100930.53;5092291;28;20126;-72
2022/04/27 07:11:30;;;;;;;30.25;17.90;;;;;;;10.48;95.27;100931.94;5091935;28;20040;-71
2022/04/27 07:13:56;;;;;;;30.60;18.35;;;;;;;10.50;94.88;100930.81;5092115;28;20500;-72
2022/04/27 07:16:21;;;;;;;28.65;17.23;;;;;;;10.69;92.38;100931.56;5090747;28;20434;-72
2022/04/27 07:18:48;;;;;;;27.10;17.58;;;;;;;10.67;91.70;100938.88;5092127;28;20401;-72
2022/04/27 07:21:14;;;;;;;27.77;16.95;;;;;;;10.64;91.64;100933.88;5090665;28;20043;-74
2022/04/27 07:23:39;;;;;;;26.88;16.98;;;;;;;10.84;90.54;100941.50;5091815;28;20040;-72
2022/04/27 07:26:08;;;;;;;30.42;18.65;;;;;;;10.74;91.25;100939.94;5090610;28;20043;-72
2022/04/27 07:28:37;;;;;;;23.48;15.35;;;;;;;10.93;90.61;100941.53;5092031;28;20566;-72
2022/04/27 07:31:02;;;;;;;26.10;15.82;;;;;;;11.08;89.04;100954.13;5093129;28;20028;-72
2022/04/27 07:33:28;;;;;;;23.88;14.35;;;;;;;10.96;88.67;100950.06;5093427;28;20120;-70
2022/04/27 07:35:53;;;;;;;23.02;14.43;;;;;;;10.76;90.97;100949.44;5093012;28;20492;-71
2022/04/27 07:38:19;;;;;;;24.63;15.73;;;;;;;10.87;89.36;100945.66;5090472;28;20094;-71
2022/04/27 07:40:45;;;;;;;25.10;15.82;;;;;;;11.28;90.30;100956.53;5090555;28;20040;-71
2022/04/27 07:43:10;;;;;;;21.48;14.40;;;;;;;11.54;87.65;100962.66;5091378;28;20044;-70
2022/04/27 07:45:36;;;;;;;22.40;14.40;;;;;;;11.64;87.41;100952.66;5091495;28;20036;-70
2022/04/27 07:48:01;;;;;;;20.65;13.90;;;;;;;11.75;84.66;100962.19;5091676;28;20066;-71
2022/04/27 07:50:27;;;;;;;22.35;12.68;;;;;;;11.91;85.42;100961.41;5090563;28;20038;-70
2022/04/27 07:52:52;;;;;;;22.63;13.63;;;;;;;11.99;85.69;100958.75;5090486;28;20040;-70
2022/04/27 07:55:18;;;;;;;18.05;11.82;;;;;;;12.09;83.91;100966.63;5091902;28;20063;-71
2022/04/27 07:57:45;;;;;;;18.85;12.18;;;;;;;12.19;83.19;100967.28;5091958;28;20038;-70
2022/04/27 08:00:12;;;;;;;18.90;12.63;;;;;;;12.29;83.33;100970.63;5092102;28;20418;-71
2022/04/27 08:02:39;;;;;;;17.63;12.38;;;;;;;12.55;82.26;100967.78;5092603;28;20040;-70
2022/04/27 08:05:05;;;;;;;18.80;12.27;;;;;;;12.64;78.86;100974.78;5091989;28;20067;-71
2022/04/27 08:07:36;;;;;;;17.88;12.98;;;;;;;12.63;77.13;100974.94;5091488;28;20036;-69
2022/04/27 08:10:09;;;;;;;18.63;12.48;;;;;;;12.47;78.08;100979.31;5090650;28;20468;-69
2022/04/27 08:12:35;;;;;;;16.48;11.88;;;;;;;12.72;77.75;100972.09;5091519;28;20082;-71
2022/04/27 08:15:01;;;;;;;17.38;11.48;;;;;;;12.55;77.49;100975.78;5091284;28;20063;-71
2022/04/27 08:17:26;;;;;;;16.55;11.05;;;;;;;12.83;77.27;100978.09;5091350;28;20039;-70
2022/04/27 08:21:13;;;;;;;15.75;11.57;;;;;;;12.83;77.70;100978.91;5091291;28;20051;-70
2022/04/27 08:22:37;;;;;;;15.05;10.80;;;;;;;12.51;81.76;100982.47;5090928;28;20044;-71
2022/04/27 08:25:03;;;;;;;15.43;10.63;;;;;;;12.73;77.80;100984.47;5091558;28;20039;-71
2022/04/27 08:27:28;;;;;;;15.80;10.43;;;;;;;12.86;76.89;100989.28;5091127;28;20040;-69
2022/04/27 08:29:54;;;;;;;13.60;9.93;;;;;;;12.87;76.46;100993.63;5091399;28;20067;-70
2022/04/27 08:32:19;;;;;;;13.25;10.38;;;;;;;12.81;77.38;100988.97;5090857;28;20135;-70
2022/04/27 08:34:48;;;;;;;13.43;9.27;;;;;;;12.91;74.72;100994.09;5091226;28;20031;-70
2022/04/27 08:37:14;;;;;;;13.30;8.32;;;;;;;12.57;77.75;100995.16;5091044;28;20089;-72
2022/04/27 08:39:39;;;;;;;12.90;8.95;;;;;;;12.90;73.55;100993.28;5091155;28;20040;-70
2022/04/27 08:42:05;;;;;;;13.43;8.77;;;;;;;13.03;72.88;100990.91;5091334;28;20089;-70
2022/04/27 08:44:30;;;;;;;11.40;8.45;;;;;;;13.05;71.67;100996.09;5091093;28;20073;-70
2022/04/27 08:46:58;;;;;;;12.45;8.57;;;;;;;12.97;74.57;100991.59;5091039;28;20512;-70
2022/04/27 08:49:23;;;;;;;11.77;8.35;;;;;;;13.18;73.12;100996.41;5091000;28;20044;-70
2022/04/27 08:51:49;;;;;;;13.38;8.98;;;;;;;13.13;74.76;101000.59;5090714;28;20046;-70
2022/04/27 08:54:15;;;;;;;14.38;7.70;;;;;;;13.01;72.95;100994.75;5090996;28;20041;-70
2022/04/27 08:56:41;;;;;;;13.73;8.95;;;;;;;12.98;76.75;101003.97;5090949;28;20107;-70
2022/04/27 08:59:08;;;;;;;9.90;7.80;;;;;;;13.37;70.81;100997.03;5091049;28;20465;-71
2022/04/27 09:01:34;;;;;;;11.60;8.38;;;;;;;13.43;71.08;100997.19;5090834;28;20112;-71
2022/04/27 09:04:16;;;;;;;9.43;7.03;;;;;;;13.79;74.96;101000.16;5090980;28;20032;-70
2022/04/27 09:06:42;;;;;;;9.15;6.70;;;;;;;14.10;71.59;100991.28;5091010;28;20047;-71
2022/04/27 09:09:13;;;;;;;10.55;6.80;;;;;;;14.05;68.24;100990.97;5093398;28;20020;-71
2022/04/27 09:11:39;;;;;;;8.77;6.15;;;;;;;14.17;67.30;100994.91;5094661;28;20040;-70
2022/04/27 09:14:07;;;;;;;9.32;6.28;;;;;;;14.12;66.49;100991.94;5094798;28;20067;-70
2022/04/27 09:22:07;;;;;;;6.15;4.72;;;;;;;14.22;62.71;100976.47;5092971;28;20149;-70
2022/04/27 09:24:51;;;;;;;7.40;4.68;;;;;;;14.37;65.63;100988.06;5094531;28;20036;-71
2022/04/27 09:27:19;;;;;;;7.88;5.20;;;;;;;14.17;64.02;100994.09;5093171;28;20472;-70
2022/04/27 09:29:54;;;;;;;;;;;;;;;14.60;63.11;100996.09;5094803;28;20036;-70
2022/04/27 09:32:20;;;;;;;6.50;5.00;;;;;;;15.00;62.47;100995.91;5075722;28;19916;-72
2022/04/27 09:34:47;;;;;;;6.22;4.78;;;;;;;15.34;62.22;100996.16;5093106;28;20278;-70
2022/04/27 09:37:18;;;;;;;9.00;5.55;;;;;;;15.52;60.24;100990.41;5094413;28;20341;-71
2022/04/27 09:39:46;;;;;;;7.00;4.20;;;;;;;15.86;59.26;100989.00;5093196;28;20043;-71
2022/04/27 09:42:14;;;;;;;7.05;4.43;;;;;;;16.26;56.29;100982.16;5094248;28;20097;-70
2022/04/27 09:44:40;;;;;;;;;;;;;;;16.78;55.73;100980.97;5094843;28;20550;-71
2022/04/27 09:47:07;;;;;;;6.70;3.88;;;;;;;17.18;55.17;100992.00;5094265;28;20112;-71
2022/04/27 09:49:36;;;;;;;5.35;4.03;;;;;;;17.17;54.86;101001.09;5094045;28;20032;-70
2022/04/27 09:52:04;;;;;;;5.70;4.20;;;;;;;16.99;54.96;100998.91;5092340;28;20494;-71
2022/04/27 09:54:37;;;;;;;;;;;;;;;16.43;56.65;100997.00;5094617;28;20036;-71
2022/04/27 09:57:09;;;;;;;7.70;4.65;;;;;;;16.50;55.17;100997.91;5093771;28;19939;-70
2022/04/27 09:59:36;;;;;;;6.35;4.53;;;;;;;16.21;55.75;100998.84;5093888;28;20040;-71
2022/04/27 10:02:01;;;;;;;5.73;4.23;;;;;;;15.93;57.02;101001.47;5092579;28;20109;-71
2022/04/27 10:04:28;;;;;;;8.45;4.50;;;;;;;16.04;59.75;100984.03;5093679;28;20564;-71
2022/04/27 10:06:59;;;;;;;8.65;4.72;;;;;;;16.65;61.09;100981.66;5093564;28;20051;-71
2022/04/27 10:09:27;;;;;;;4.97;4.07;;;;;;;16.50;59.23;100984.44;5092434;28;20085;-71
2022/04/27 10:11:57;;;;;;;4.97;3.58;;;;;;;16.51;56.80;100988.81;5093151;28;20104;-71
2022/04/27 10:14:25;;;;;;;5.95;3.63;;;;;;;16.14;55.54;100983.69;5092152;28;20483;-71
2022/04/27 10:16:51;;;;;;;5.38;3.67;;;;;;;16.54;56.38;100985.72;5093538;28;20043;-70
2022/04/27 10:19:17;;;;;;;5.53;4.10;;;;;;;16.70;54.85;100981.13;5093312;28;20060;-71
2022/04/27 10:21:57;;;;;;;5.28;3.90;;;;;;;16.97;55.47;100977.59;5093005;28;20400;-72
2022/04/27 10:24:37;;;;;;;5.53;3.60;;;;;;;18.16;49.99;100974.53;5093438;28;20035;-70
2022/04/27 10:27:36;;;;;;;5.97;3.17;;;;;;;18.25;50.29;100973.28;5091963;28;20046;-71
2022/04/27 10:30:10;;;;;;;4.00;3.10;;;;;;;18.91;49.57;100969.81;5093586;28;20124;-71
2022/04/27 10:32:46;;;;;;;5.20;3.40;;;;;;;19.24;49.42;100978.66;5093550;28;20508;-71
2022/04/27 10:35:12;;;;;;;4.10;3.47;;;;;;;19.31;47.09;100975.09;5106915;22;20040;-74
2022/04/27 10:37:44;;;;;;;3.47;2.92;;;;;;;20.11;44.14;100973.69;5073094;28;20043;-72
2022/04/27 10:40:40;;;;;;;4.72;3.03;;;;;;;20.67;43.65;100966.59;5073179;28;20056;-71
2022/04/27 10:43:15;;;;;;;4.70;3.75;;;;;;;20.60;42.69;100972.06;5072706;28;20051;-73
2022/04/27 10:45:47;;;;;;;4.18;3.25;;;;;;;20.18;44.61;100962.81;5072917;28;20758;-72
2022/04/27 10:48:45;;;;;;;4.05;3.30;;;;;;;20.14;43.01;100965.13;5072858;28;20094;-72
2022/04/27 10:51:10;;;;;;;4.43;3.28;;;;;;;19.86;43.89;100968.22;5055515;28;20056;-72
2022/04/27 10:53:41;;;;;;;5.53;3.75;;;;;;;19.71;44.11;100963.09;5072580;28;20045;-73
2022/04/27 10:56:26;;;;;;;4.20;3.40;;;;;;;19.59;44.35;100964.81;5056822;28;20051;-72
2022/04/27 10:58:52;;;;;;;4.88;3.30;;;;;;;19.39;45.39;100961.34;5072545;28;20032;-72
2022/04/27 11:01:26;;;;;;;5.05;3.75;;;;;;;18.69;48.29;100963.78;5072573;28;20416;-72
2022/04/27 11:04:04;;;;;;;4.38;3.58;;;;;;;18.35;47.41;100970.22;5072241;28;20610;-72
2022/04/27 11:06:56;;;;;;;4.20;3.20;;;;;;;18.45;48.08;100970.63;5038074;28;20044;-72
2022/04/27 11:09:53;;;;;;;5.18;3.60;;;;;;;18.42;46.23;100974.56;5072416;28;20028;-73
2022/04/27 11:12:19;;;;;;;4.30;3.45;;;;;;;17.59;48.51;100973.94;5057665;28;20113;-72
2022/04/27 11:14:45;;;;;;;5.22;3.58;;;;;;;18.20;47.86;100970.41;5072394;28;20040;-71
2022/04/27 11:17:10;;;;;;;5.25;3.63;;;;;;;18.25;47.82;100951.72;5054377;28;20032;-72
2022/04/27 11:19:38;;;;;;;4.78;4.05;;;;;;;18.35;48.40;100978.31;5072121;28;20039;-72
2022/04/27 11:22:15;;;;;;;7.22;4.20;;;;;;;17.85;48.87;100983.19;5071899;28;20099;-72
2022/04/27 11:24:42;;;;;;;4.95;3.60;;;;;;;18.40;48.65;100975.81;5072147;28;20029;-71
2022/04/27 11:27:08;;;;;;;5.07;4.15;;;;;;;18.32;48.27;100978.69;5072325;28;20060;-72
2022/04/27 11:29:37;;;;;;;5.43;3.70;;;;;;;18.36;48.13;100971.88;5054131;28;20143;-73
2022/04/27 11:32:06;;;;;;;5.03;3.90;;;;;;;17.95;48.83;100977.41;5071383;28;20115;-72
2022/04/27 11:34:33;;;;;;;5.03;3.80;;;;;;;17.82;49.30;100981.72;5071677;28;20611;-71
2022/04/27 11:37:16;;;;;;;4.65;3.20;;;;;;;18.14;48.86;100968.53;5072207;28;20032;-73
2022/04/27 11:39:43;;;;;;;4.38;3.70;;;;;;;18.90;46.41;100971.66;5071833;28;20130;-71
2022/04/27 11:42:12;;;;;;;5.65;3.45;;;;;;;19.18;44.35;100971.41;5071592;28;20032;-71
2022/04/27 11:44:41;;;;;;;4.28;3.00;;;;;;;19.76;44.64;100967.88;5071732;28;20067;-72
2022/04/27 11:47:32;;;;;;;4.63;3.65;;;;;;;19.07;45.74;100974.75;5071633;28;20442;-72
2022/04/27 11:49:59;;;;;;;4.07;3.08;;;;;;;19.24;45.13;100967.84;5037219;28;20036;-72
2022/04/27 11:52:26;;;;;;;6.32;3.70;;;;;;;18.91;46.11;100969.81;5053498;28;20036;-72
2022/04/27 11:54:52;;;;;;;4.72;3.30;;;;;;;18.79;47.07;100971.47;5071579;28;20044;-71
2022/04/27 11:57:24;;;;;;;4.03;3.47;;;;;;;18.39;46.80;100974.16;5071706;28;20037;-72
2022/04/27 11:59:57;;;;;;;3.45;2.95;;;;;;;18.28;45.55;100972.06;5071554;28;20040;-71
2022/04/27 12:02:25;;;;;;;4.60;3.47;;;;;;;17.93;47.31;100969.53;5071293;28;20045;-71
2022/04/27 12:04:56;;;;;;;5.13;3.47;;;;;;;17.59;48.56;100967.72;5071362;28;20032;-72
2022/04/27 12:07:22;;;;;;;4.15;3.50;;;;;;;18.52;47.98;100967.91;5071591;28;20052;-71
2022/04/27 12:10:02;;;;;;;4.47;3.55;;;;;;;19.63;47.43;100966.06;5020632;28;20028;-71
2022/04/27 12:12:29;;;;;;;4.63;3.15;;;;;;;20.64;43.43;100962.47;5071127;28;20047;-72
2022/04/27 12:14:56;;;;;;;5.07;4.10;;;;;;;21.29;39.29;100965.56;5053513;28;20074;-72
2022/04/27 12:17:42;;;;;;;4.22;2.92;;;;;;;22.01;37.98;100962.13;5071371;28;20040;-72
2022/04/27 12:20:11;;;;;;;6.13;3.47;;;;;;;21.83;38.15;100963.00;5071418;28;20032;-71
2022/04/27 12:22:50;;;;;;;4.93;3.65;;;;;;;22.20;37.00;100952.88;5053175;28;20040;-71
2022/04/27 12:25:15;;;;;;;3.60;3.05;;;;;;;22.52;38.12;100949.88;5071379;28;20040;-72
2022/04/27 12:27:42;;;;;;;4.50;3.15;;;;;;;22.98;34.64;100947.16;5071479;28;20033;-72
2022/04/27 12:30:08;;;;;;;4.77;3.37;;;;;;;23.11;34.48;100953.41;5053420;28;20075;-71
2022/04/27 12:32:34;;;;;;;4.22;3.03;;;;;;;23.31;33.36;100953.84;5070935;28;20104;-72
2022/04/27 12:37:52;;;;;;;3.75;3.13;;;;;;;23.94;32.99;100947.47;5071390;28;20409;-73
2022/04/27 12:40:18;;;;;;;5.18;3.50;;;;;;;23.24;34.78;100945.00;5071283;28;20029;-73
2022/04/27 12:43:06;;;;;;;4.05;3.22;;;;;;;23.34;33.65;100945.19;5054006;28;20044;-74
2022/04/27 12:45:34;;;;;;;3.67;3.22;;;;;;;23.70;33.87;100943.22;5075154;28;20382;-73
2022/04/27 12:48:00;;;;;;;5.80;3.50;;;;;;;23.99;33.15;100942.09;5057227;28;20063;-77
2022/04/27 12:50:26;;;;;;;5.15;3.85;;;;;;;24.09;32.47;100927.88;5075007;28;20040;-77
2022/04/27 12:53:04;;;;;;;7.30;4.30;;;;;;;23.30;34.36;100938.59;5057258;28;20045;-76
2022/04/27 12:55:30;;;;;;;4.50;3.80;;;;;;;22.71;34.25;100926.97;5057090;28;20025;-77
2022/04/27 12:57:55;;;;;;;5.85;3.30;;;;;;;22.28;36.36;100936.25;5074710;28;20386;-76
2022/04/27 13:00:43;;;;;;;4.25;3.83;;;;;;;22.69;35.27;100935.34;5040529;28;20036;-76
2022/04/27 13:03:09;;;;;;;4.75;3.72;;;;;;;23.39;33.46;100934.41;5056722;28;20037;-76
2022/04/27 13:05:42;;;;;;;5.47;3.53;;;;;;;22.74;35.42;100926.47;5075299;28;20346;-77
2022/04/27 13:08:09;;;;;;;4.53;3.63;;;;;;;22.46;36.12;100933.44;5040724;28;20085;-79
2022/04/27 13:13:22;;;;;;;5.03;4.00;;;;;;;21.60;37.49;100928.50;5074618;28;20063;-77
2022/04/27 13:15:49;;;;;;;;;;;;;;;22.03;35.92;100935.59;5075090;28;20559;-77
2022/04/27 13:18:18;;;;;;;5.40;3.80;;;;;;;21.94;37.10;100918.81;5074460;28;19912;-77
2022/04/27 13:20:44;;;;;;;4.90;3.70;;;;;;;21.88;37.39;100926.00;5074528;28;20024;-76
2022/04/27 13:23:11;;;;;;;4.28;3.42;;;;;;;21.78;36.83;100925.75;5074283;28;20039;-75
2022/04/27 13:25:37;;;;;;;8.35;4.30;;;;;;;21.58;37.86;100925.16;5074384;28;20083;-77
2022/04/27 13:28:04;;;;;;;5.13;4.05;;;;;;;21.34;37.17;100905.28;5074474;28;20402;-76
2022/04/27 13:30:30;;;;;;;6.17;3.70;;;;;;;21.11;38.02;100936.56;5074739;28;20505;-77
2022/04/27 13:32:56;;;;;;;7.10;4.05;;;;;;;20.65;39.61;100926.22;5075104;28;20029;-77
2022/04/27 13:35:25;;;;;;;6.10;3.90;;;;;;;20.55;39.66;100924.03;5074410;28;20071;-76
2022/04/27 13:37:51;;;;;;;4.90;4.15;;;;;;;20.56;39.45;100917.56;5023940;28;20143;-76
2022/04/27 13:40:17;;;;;;;5.82;3.58;;;;;;;20.87;39.09;100929.34;5075142;28;20067;-80
2022/04/27 13:42:42;;;;;;;8.60;4.65;;;;;;;20.21;40.73;100930.75;5073785;28;20029;-76
2022/04/27 13:45:10;;;;;;;7.95;4.22;;;;;;;20.11;40.73;100929.59;5074007;28;20424;-76
2022/04/27 13:47:36;;;;;;;5.00;4.38;;;;;;;19.51;41.19;100940.72;5074109;28;20394;-75
2022/04/27 13:50:03;;;;;;;6.07;4.13;;;;;;;19.63;41.91;100932.81;5056313;28;20120;-76
2022/04/27 13:52:29;;;;;;;6.03;4.63;;;;;;;18.91;42.19;100918.53;5056145;28;20040;-76
2022/04/27 13:54:54;;;;;;;5.80;4.13;;;;;;;18.77;41.53;100928.50;5055505;28;20044;-76
2022/04/27 13:57:20;;;;;;;11.00;5.28;;;;;;;18.96;41.68;100916.00;5055878;28;20153;-75
2022/04/27 13:59:46;;;;;;;4.95;4.15;;;;;;;19.02;42.17;100925.94;5055771;28;20447;-76
2022/04/27 14:02:13;;;;;;;4.90;4.25;;;;;;;19.17;42.03;100917.56;5073484;28;20060;-76
2022/04/27 14:04:40;;;;;;;6.05;4.30;;;;;;;19.44;41.41;100910.22;5073679;28;20093;-77
2022/04/27 14:07:06;;;;;;;7.32;4.95;;;;;;;19.68;41.12;100908.66;5073770;28;20489;-77
2022/04/27 14:09:31;;;;;;;6.28;4.63;;;;;;;19.37;41.77;100904.84;5073589;28;20127;-73
2022/04/27 14:14:41;;;;;;;6.43;4.82;;;;;;;19.21;42.49;100908.84;5073458;28;20041;-73
2022/04/27 14:19:51;;;;;;;6.20;4.68;;;;;;;18.99;43.01;100926.38;5073608;28;20124;-71
2022/04/27 14:22:17;;;;;;;6.15;4.10;;;;;;;19.10;42.78;100905.97;5055135;28;20111;-72
2022/04/27 14:24:42;;;;;;;7.32;5.03;;;;;;;18.95;42.74;100914.34;5073544;28;20044;-73
2022/04/27 14:27:08;;;;;;;4.80;3.88;;;;;;;18.80;44.56;100914.59;5073345;28;20041;-74
2022/04/27 14:29:34;;;;;;;8.45;4.65;;;;;;;18.55;46.01;100908.16;5073126;28;20044;-73
2022/04/27 14:32:02;;;;;;;6.35;4.82;;;;;;;18.37;45.91;100901.53;5055065;28;20044;-72
2022/04/27 14:34:30;;;;;;;5.85;5.15;;;;;;;18.60;43.86;100900.28;5073016;28;20483;-73
2022/04/27 14:36:57;;;;;;;6.60;4.50;;;;;;;18.26;45.64;100899.47;5073278;28;20474;-72
2022/04/27 14:39:23;;;;;;;5.55;4.50;;;;;;;18.57;45.67;100898.81;5073533;28;20036;-72
2022/04/27 14:41:49;;;;;;;6.78;4.82;;;;;;;18.41;44.83;100902.78;5073097;28;20036;-72
2022/04/27 14:44:14;;;;;;;7.03;4.90;;;;;;;18.42;45.12;100901.75;5073188;28;20040;-73
2022/04/27 14:46:40;;;;;;;6.63;4.72;;;;;;;18.51;44.54;100905.03;5055266;28;20025;-74
2022/04/27 14:49:06;;;;;;;6.38;4.18;;;;;;;18.47;43.99;100900.28;5072937;28;20036;-72
2022/04/27 14:51:32;;;;;;;7.10;4.93;;;;;;;18.50;43.53;100906.09;5072965;28;20373;-73
2022/04/27 14:53:58;;;;;;;6.07;4.93;;;;;;;18.45;42.58;100900.47;5072806;28;20029;-72
2022/04/27 14:56:24;;;;;;;6.32;4.78;;;;;;;18.25;43.39;100895.09;5072696;28;20043;-72
2022/04/27 14:58:49;;;;;;;6.63;5.05;;;;;;;18.03;44.73;100889.09;5054716;28;20517;-72
2022/04/27 15:01:15;;;;;;;8.27;5.38;;;;;;;18.13;44.26;100884.13;5072744;28;20563;-71
2022/04/27 15:03:40;;;;;;;9.00;5.55;;;;;;;17.86;44.12;100888.66;5072418;28;20032;-72
2022/04/27 15:06:06;;;;;;;7.22;5.75;;;;;;;17.87;45.14;100890.34;5071598;28;20397;-73
2022/04/27 15:08:32;;;;;;;8.18;5.53;;;;;;;17.88;44.33;100888.47;5038074;28;20067;-73
2022/04/27 15:10:57;;;;;;;8.93;5.70;;;;;;;17.80;44.89;100888.63;5072289;28;20394;-72
2022/04/27 15:13:23;;;;;;;7.78;5.03;;;;;;;17.70;45.76;100874.72;5071949;28;20119;-74
2022/04/27 15:15:48;;;;;;;7.22;5.68;;;;;;;17.86;43.87;100887.81;5072207;28;20037;-73
2022/04/27 15:18:16;;;;;;;8.00;5.38;;;;;;;17.82;44.48;100875.81;5038030;28;20040;-74
2022/04/27 15:23:27;;;;;;;8.05;5.20;;;;;;;17.93;44.40;100877.03;5072616;28;20052;-79
2022/04/27 15:25:53;;;;;;;7.70;5.22;;;;;;;17.97;44.85;100879.13;5055342;28;20036;-75
2022/04/27 15:28:18;;;;;;;6.32;4.88;;;;;;;18.00;45.44;100870.66;5072240;28;20038;-74
2022/04/27 15:30:44;;;;;;;7.53;4.68;;;;;;;18.01;45.96;100880.41;5054677;28;20374;-75
2022/04/27 15:33:10;;;;;;;8.65;5.55;;;;;;;18.03;45.35;100878.31;5072028;28;20527;-72
2022/04/27 15:35:36;;;;;;;9.10;5.88;;;;;;;17.95;45.33;100875.81;5071869;28;20044;-72
2022/04/27 15:38:02;;;;;;;8.40;5.00;;;;;;;17.90;45.64;100879.13;5072119;28;20071;-72
2022/04/27 15:40:29;;;;;;;5.78;4.85;;;;;;;17.81;45.50;100875.00;5053980;28;20386;-73
2022/04/27 15:42:54;;;;;;;6.38;5.07;;;;;;;17.78;45.69;100875.38;5071743;28;20593;-72
2022/04/27 15:45:23;;;;;;;9.45;4.90;;;;;;;17.82;45.47;100886.59;5071985;28;20115;-73
2022/04/27 15:47:49;;;;;;;8.05;5.28;;;;;;;17.80;45.53;100878.72;5071755;28;20557;-71
2022/04/27 15:50:15;;;;;;;6.60;5.60;;;;;;;17.70;44.93;100880.94;5071779;28;20047;-71
2022/04/27 15:52:42;;;;;;;8.02;5.45;;;;;;;17.62;45.29;100878.44;5071212;28;20025;-71
2022/04/27 15:55:10;;;;;;;8.65;5.72;;;;;;;17.58;45.59;100883.41;5071416;28;20123;-72
2022/04/27 15:57:35;;;;;;;;;;;;;;;17.58;45.73;100886.09;5054264;28;20521;-72
2022/04/27 16:00:01;;;;;;;13.60;7.07;;;;;;;17.56;45.28;100887.34;5071505;28;19920;-72
2022/04/27 16:02:29;;;;;;;10.05;6.90;;;;;;;17.48;45.75;100888.34;5071105;28;20470;-72
2022/04/27 16:04:55;;;;;;;11.70;8.07;;;;;;;17.45;46.18;100891.44;5053591;28;20146;-71
2022/04/27 16:07:20;;;;;;;12.63;7.22;;;;;;;17.40;45.69;100890.38;5053519;28;20041;-71
2022/04/27 16:09:46;;;;;;;8.13;5.55;;;;;;;17.24;43.90;100886.19;5071496;28;20125;-71
2022/04/27 16:12:12;;;;;;;10.05;6.13;;;;;;;17.24;44.69;100894.28;5052980;28;20067;-71
2022/04/27 16:14:37;;;;;;;7.72;5.55;;;;;;;17.14;45.21;100885.72;5071376;28;20035;-72
2022/04/27 16:17:04;;;;;;;8.95;5.22;;;;;;;17.14;45.65;100894.63;5071432;28;20129;-70
2022/04/27 16:19:29;;;;;;;8.95;5.60;;;;;;;17.08;44.94;100884.66;5053522;28;20051;-72
2022/04/27 16:24:43;;;;;;;8.68;5.25;;;;;;;17.19;44.42;100892.19;5071411;28;20298;-72
2022/04/27 16:27:09;;;;;;;7.00;5.28;;;;;;;17.08;44.91;100893.59;5071361;28;20473;-72
2022/04/27 16:29:35;;;;;;;8.50;5.05;;;;;;;17.10;45.25;100896.09;5053356;28;20043;-71